sensor_id;sensor_type;location;lat;lon;timestamp;P1;durP1;ratioP1;P2;durP2;ratioP2
45714;SDS011;31430;61.646;24.704;2023-04-01T00:02:18;58.65;;;55.00;;
45714;SDS011;31430;61.646;24.704;2023-04-01T00:04:44;60.55;;;56.78;;
45714;SDS011;31430;61.646;24.704;2023-04-01T00:07:09;60.05;;;56.33;;
45714;SDS011;31430;61.646;24.704;2023-04-01T00:09:35;59.95;;;56.22;;
45714;SDS011;31430;61.646;24.704;2023-04-01T00:12:01;59.25;;;55.55;;
45714;SDS011;31430;61.646;24.704;2023-04-01T00:14:27;60.72;;;56.92;;
45714;SDS011;31430;61.646;24.704;2023-04-01T00:16:54;57.92;;;54.33;;
45714;SDS011;31430;61.646;24.704;2023-04-01T00:19:19;60.60;;;56.83;;
45714;SDS011;31430;61.646;24.704;2023-04-01T00:21:45;60.25;;;56.50;;
45714;SDS011;31430;61.646;24.704;2023-04-01T00:24:11;59.22;;;55.53;;
45714;SDS011;31430;61.646;24.704;2023-04-01T00:26:37;60.85;;;57.05;;
45714;SDS011;31430;61.646;24.704;2023-04-01T00:29:02;59.33;;;55.63;;
45714;SDS011;31430;61.646;24.704;2023-04-01T00:31:28;58.88;;;55.20;;
45714;SDS011;31430;61.646;24.704;2023-04-01T00:33:55;58.97;;;55.30;;
45714;SDS011;31430;61.646;24.704;2023-04-01T00:36:21;60.60;;;56.83;;
45714;SDS011;31430;61.646;24.704;2023-04-01T00:38:48;60.25;;;56.50;;
45714;SDS011;31430;61.646;24.704;2023-04-01T00:41:15;61.30;;;57.50;;
45714;SDS011;31430;61.646;24.704;2023-04-01T00:43:46;59.20;;;55.50;;
45714;SDS011;31430;61.646;24.704;2023-04-01T00:46:13;59.55;;;55.85;;
45714;SDS011;31430;61.646;24.704;2023-04-01T00:48:42;61.38;;;57.58;;
45714;SDS011;31430;61.646;24.704;2023-04-01T00:51:19;58.13;;;54.53;;
45714;SDS011;31430;61.646;24.704;2023-04-01T00:53:49;60.80;;;57.00;;
45714;SDS011;31430;61.646;24.704;2023-04-01T00:56:19;60.17;;;56.45;;
45714;SDS011;31430;61.646;24.704;2023-04-01T00:58:54;61.60;;;57.78;;
45714;SDS011;31430;61.646;24.704;2023-04-01T01:01:33;59.70;;;56.00;;
45714;SDS011;31430;61.646;24.704;2023-04-01T01:04:00;61.90;;;58.05;;
45714;SDS011;31430;61.646;24.704;2023-04-01T01:09:06;62.47;;;58.58;;
45714;SDS011;31430;61.646;24.704;2023-04-01T01:11:51;59.60;;;55.90;;
45714;SDS011;31430;61.646;24.704;2023-04-01T01:14:55;62.17;;;58.33;;
45714;SDS011;31430;61.646;24.704;2023-04-01T01:17:44;60.72;;;56.92;;
45714;SDS011;31430;61.646;24.704;2023-04-01T01:24:06;62.78;;;58.88;;
45714;SDS011;31430;61.646;24.704;2023-04-01T01:34:40;61.30;;;57.50;;
45714;SDS011;31430;61.646;24.704;2023-04-01T01:37:26;64.15;;;60.15;;
45714;SDS011;31430;61.646;24.704;2023-04-01T01:39:56;61.03;;;57.22;;
45714;SDS011;31430;61.646;24.704;2023-04-01T01:42:26;62.70;;;58.80;;
45714;SDS011;31430;61.646;24.704;2023-04-01T01:44:55;61.20;;;57.40;;
45714;SDS011;31430;61.646;24.704;2023-04-01T01:47:24;64.25;;;60.25;;
45714;SDS011;31430;61.646;24.704;2023-04-01T01:49:52;61.47;;;57.67;;
45714;SDS011;31430;61.646;24.704;2023-04-01T01:52:19;61.88;;;58.03;;
45714;SDS011;31430;61.646;24.704;2023-04-01T01:54:49;61.28;;;57.47;;
45714;SDS011;31430;61.646;24.704;2023-04-01T01:57:17;61.50;;;57.70;;
45714;SDS011;31430;61.646;24.704;2023-04-01T01:59:45;61.55;;;57.75;;
45714;SDS011;31430;61.646;24.704;2023-04-01T02:02:12;61.45;;;57.65;;
45714;SDS011;31430;61.646;24.704;2023-04-01T02:04:45;60.75;;;56.95;;
45714;SDS011;31430;61.646;24.704;2023-04-01T02:07:33;61.35;;;57.55;;
45714;SDS011;31430;61.646;24.704;2023-04-01T02:09:58;60.58;;;56.80;;
45714;SDS011;31430;61.646;24.704;2023-04-01T02:12:24;62.28;;;58.40;;
45714;SDS011;31430;61.646;24.704;2023-04-01T02:15:03;61.92;;;58.08;;
45714;SDS011;31430;61.646;24.704;2023-04-01T02:17:30;62.67;;;58.78;;
45714;SDS011;31430;61.646;24.704;2023-04-01T02:19:58;62.13;;;58.25;;
45714;SDS011;31430;61.646;24.704;2023-04-01T02:22:30;61.60;;;57.80;;
45714;SDS011;31430;61.646;24.704;2023-04-01T02:25:06;62.20;;;58.33;;
45714;SDS011;31430;61.646;24.704;2023-04-01T02:27:34;61.33;;;57.53;;
45714;SDS011;31430;61.646;24.704;2023-04-01T02:30:01;63.10;;;59.20;;
45714;SDS011;31430;61.646;24.704;2023-04-01T02:32:26;63.10;;;59.20;;
45714;SDS011;31430;61.646;24.704;2023-04-01T02:34:54;62.65;;;58.75;;
45714;SDS011;31430;61.646;24.704;2023-04-01T02:37:21;62.85;;;58.95;;
45714;SDS011;31430;61.646;24.704;2023-04-01T02:39:47;60.75;;;56.97;;
45714;SDS011;31430;61.646;24.704;2023-04-01T02:42:13;62.60;;;58.70;;
45714;SDS011;31430;61.646;24.704;2023-04-01T02:44:39;62.00;;;58.15;;
45714;SDS011;31430;61.646;24.704;2023-04-01T02:47:05;62.65;;;58.75;;
45714;SDS011;31430;61.646;24.704;2023-04-01T02:49:31;62.00;;;58.15;;
45714;SDS011;31430;61.646;24.704;2023-04-01T02:51:56;62.25;;;58.38;;
45714;SDS011;31430;61.646;24.704;2023-04-01T02:54:22;60.33;;;56.58;;
45714;SDS011;31430;61.646;24.704;2023-04-01T02:56:48;62.80;;;58.90;;
45714;SDS011;31430;61.646;24.704;2023-04-01T02:59:13;61.00;;;57.20;;
45714;SDS011;31430;61.646;24.704;2023-04-01T03:01:39;63.67;;;59.72;;
45714;SDS011;31430;61.646;24.704;2023-04-01T03:04:05;62.45;;;58.55;;
45714;SDS011;31430;61.646;24.704;2023-04-01T03:06:30;60.47;;;56.70;;
45714;SDS011;31430;61.646;24.704;2023-04-01T03:08:56;62.40;;;58.50;;
45714;SDS011;31430;61.646;24.704;2023-04-01T03:11:22;63.60;;;59.65;;
45714;SDS011;31430;61.646;24.704;2023-04-01T03:13:48;62.72;;;58.83;;
45714;SDS011;31430;61.646;24.704;2023-04-01T03:16:14;61.33;;;57.53;;
45714;SDS011;31430;61.646;24.704;2023-04-01T03:18:40;62.97;;;59.08;;
45714;SDS011;31430;61.646;24.704;2023-04-01T03:21:12;62.30;;;58.40;;
45714;SDS011;31430;61.646;24.704;2023-04-01T03:23:42;63.03;;;59.13;;
45714;SDS011;31430;61.646;24.704;2023-04-01T03:26:08;63.42;;;59.50;;
45714;SDS011;31430;61.646;24.704;2023-04-01T03:28:33;62.70;;;58.80;;
45714;SDS011;31430;61.646;24.704;2023-04-01T03:30:59;61.33;;;57.53;;
45714;SDS011;31430;61.646;24.704;2023-04-01T03:33:25;63.35;;;59.42;;
45714;SDS011;31430;61.646;24.704;2023-04-01T03:35:50;61.65;;;57.83;;
45714;SDS011;31430;61.646;24.704;2023-04-01T03:38:17;62.70;;;58.80;;
45714;SDS011;31430;61.646;24.704;2023-04-01T03:40:43;61.15;;;57.35;;
45714;SDS011;31430;61.646;24.704;2023-04-01T03:43:09;62.15;;;58.28;;
45714;SDS011;31430;61.646;24.704;2023-04-01T03:45:35;61.40;;;57.60;;
45714;SDS011;31430;61.646;24.704;2023-04-01T03:48:01;62.97;;;59.08;;
45714;SDS011;31430;61.646;24.704;2023-04-01T03:50:27;64.30;;;60.30;;
45714;SDS011;31430;61.646;24.704;2023-04-01T03:52:52;64.93;;;60.90;;
45714;SDS011;31430;61.646;24.704;2023-04-01T03:55:18;66.13;;;62.03;;
45714;SDS011;31430;61.646;24.704;2023-04-01T03:57:44;66.80;;;62.65;;
45714;SDS011;31430;61.646;24.704;2023-04-01T04:00:10;64.95;;;60.92;;
45714;SDS011;31430;61.646;24.704;2023-04-01T04:02:36;65.78;;;61.67;;
45714;SDS011;31430;61.646;24.704;2023-04-01T04:05:02;65.13;;;61.08;;
45714;SDS011;31430;61.646;24.704;2023-04-01T04:07:29;65.53;;;61.45;;
45714;SDS011;31430;61.646;24.704;2023-04-01T04:09:55;64.97;;;60.95;;
45714;SDS011;31430;61.646;24.704;2023-04-01T04:12:20;65.70;;;61.60;;
45714;SDS011;31430;61.646;24.704;2023-04-01T04:14:46;66.07;;;61.97;;
45714;SDS011;31430;61.646;24.704;2023-04-01T04:17:12;65.20;;;61.15;;
45714;SDS011;31430;61.646;24.704;2023-04-01T04:19:41;65.63;;;61.55;;
45714;SDS011;31430;61.646;24.704;2023-04-01T04:22:07;67.50;;;63.30;;
45714;SDS011;31430;61.646;24.704;2023-04-01T04:24:36;67.07;;;62.90;;
45714;SDS011;31430;61.646;24.704;2023-04-01T04:27:02;67.30;;;63.13;;
45714;SDS011;31430;61.646;24.704;2023-04-01T04:29:28;66.30;;;62.20;;
45714;SDS011;31430;61.646;24.704;2023-04-01T04:31:54;63.85;;;59.88;;
45714;SDS011;31430;61.646;24.704;2023-04-01T04:34:20;66.10;;;62.00;;
45714;SDS011;31430;61.646;24.704;2023-04-01T04:36:47;63.78;;;59.80;;
45714;SDS011;31430;61.646;24.704;2023-04-01T04:39:13;65.82;;;61.72;;
45714;SDS011;31430;61.646;24.704;2023-04-01T04:41:40;64.70;;;60.70;;
45714;SDS011;31430;61.646;24.704;2023-04-01T04:44:06;65.00;;;60.97;;
45714;SDS011;31430;61.646;24.704;2023-04-01T04:46:32;62.20;;;58.33;;
45714;SDS011;31430;61.646;24.704;2023-04-01T04:48:58;64.03;;;60.03;;
45714;SDS011;31430;61.646;24.704;2023-04-01T04:51:23;63.00;;;59.10;;
45714;SDS011;31430;61.646;24.704;2023-04-01T04:53:50;64.72;;;60.72;;
45714;SDS011;31430;61.646;24.704;2023-04-01T04:56:19;63.45;;;59.53;;
45714;SDS011;31430;61.646;24.704;2023-04-01T04:58:46;64.18;;;60.17;;
45714;SDS011;31430;61.646;24.704;2023-04-01T05:01:12;65.47;;;61.40;;
45714;SDS011;31430;61.646;24.704;2023-04-01T05:03:40;64.22;;;60.22;;
45714;SDS011;31430;61.646;24.704;2023-04-01T05:06:06;61.88;;;58.03;;
45714;SDS011;31430;61.646;24.704;2023-04-01T05:08:33;62.35;;;58.47;;
45714;SDS011;31430;61.646;24.704;2023-04-01T05:11:00;63.45;;;59.50;;
45714;SDS011;31430;61.646;24.704;2023-04-01T05:13:27;62.72;;;58.83;;
45714;SDS011;31430;61.646;24.704;2023-04-01T05:15:53;62.80;;;58.90;;
45714;SDS011;31430;61.646;24.704;2023-04-01T05:18:19;61.65;;;57.83;;
45714;SDS011;31430;61.646;24.704;2023-04-01T05:20:54;62.17;;;58.30;;
45714;SDS011;31430;61.646;24.704;2023-04-01T05:23:21;62.30;;;58.42;;
45714;SDS011;31430;61.646;24.704;2023-04-01T05:25:47;60.85;;;57.05;;
45714;SDS011;31430;61.646;24.704;2023-04-01T05:28:15;60.95;;;57.15;;
45714;SDS011;31430;61.646;24.704;2023-04-01T05:30:41;60.08;;;56.35;;
45714;SDS011;31430;61.646;24.704;2023-04-01T05:33:08;62.08;;;58.22;;
45714;SDS011;31430;61.646;24.704;2023-04-01T05:35:35;63.80;;;59.85;;
45714;SDS011;31430;61.646;24.704;2023-04-01T05:38:01;63.67;;;59.72;;
45714;SDS011;31430;61.646;24.704;2023-04-01T05:40:27;61.47;;;57.67;;
45714;SDS011;31430;61.646;24.704;2023-04-01T05:42:54;62.70;;;58.80;;
45714;SDS011;31430;61.646;24.704;2023-04-01T05:45:19;58.50;;;54.88;;
45714;SDS011;31430;61.646;24.704;2023-04-01T05:47:45;62.38;;;58.50;;
45714;SDS011;31430;61.646;24.704;2023-04-01T05:50:11;62.00;;;58.15;;
45714;SDS011;31430;61.646;24.704;2023-04-01T05:52:37;60.58;;;56.80;;
45714;SDS011;31430;61.646;24.704;2023-04-01T05:55:03;62.50;;;58.60;;
45714;SDS011;31430;61.646;24.704;2023-04-01T05:57:31;61.28;;;57.47;;
45714;SDS011;31430;61.646;24.704;2023-04-01T05:59:56;61.90;;;58.05;;
45714;SDS011;31430;61.646;24.704;2023-04-01T06:02:22;60.70;;;56.92;;
45714;SDS011;31430;61.646;24.704;2023-04-01T06:04:48;61.88;;;58.05;;
45714;SDS011;31430;61.646;24.704;2023-04-01T06:07:15;60.78;;;56.97;;
45714;SDS011;31430;61.646;24.704;2023-04-01T06:09:42;60.08;;;56.35;;
45714;SDS011;31430;61.646;24.704;2023-04-01T06:14:53;59.97;;;56.28;;
45714;SDS011;31430;61.646;24.704;2023-04-01T06:31:10;58.63;;;55.00;;
45714;SDS011;31430;61.646;24.704;2023-04-01T06:34:13;60.05;;;56.33;;
45714;SDS011;31430;61.646;24.704;2023-04-01T06:37:50;60.53;;;56.78;;
45714;SDS011;31430;61.646;24.704;2023-04-01T06:54:03;57.88;;;54.28;;
45714;SDS011;31430;61.646;24.704;2023-04-01T06:56:34;58.53;;;54.90;;
45714;SDS011;31430;61.646;24.704;2023-04-01T06:59:46;57.22;;;53.67;;
45714;SDS011;31430;61.646;24.704;2023-04-01T07:01:55;57.80;;;54.20;;
45714;SDS011;31430;61.646;24.704;2023-04-01T07:04:26;57.25;;;53.70;;
45714;SDS011;31430;61.646;24.704;2023-04-01T07:07:08;56.90;;;53.38;;
45714;SDS011;31430;61.646;24.704;2023-04-01T07:09:52;56.20;;;52.70;;
45714;SDS011;31430;61.646;24.704;2023-04-01T07:15:14;56.83;;;53.30;;
45714;SDS011;31430;61.646;24.704;2023-04-01T07:17:48;55.30;;;51.88;;
45714;SDS011;31430;61.646;24.704;2023-04-01T07:22:52;56.30;;;52.80;;
45714;SDS011;31430;61.646;24.704;2023-04-01T07:25:24;54.45;;;51.05;;
45714;SDS011;31430;61.646;24.704;2023-04-01T07:28:01;54.13;;;50.75;;
45714;SDS011;31430;61.646;24.704;2023-04-01T07:30:37;52.30;;;49.05;;
45714;SDS011;31430;61.646;24.704;2023-04-01T07:34:16;54.70;;;51.30;;
45714;SDS011;31430;61.646;24.704;2023-04-01T07:44:04;54.13;;;50.75;;
45714;SDS011;31430;61.646;24.704;2023-04-01T08:23:13;52.72;;;49.45;;
45714;SDS011;31430;61.646;24.704;2023-04-01T08:25:48;53.13;;;49.83;;
45714;SDS011;31430;61.646;24.704;2023-04-01T08:31:15;50.28;;;47.15;;
45714;SDS011;31430;61.646;24.704;2023-04-01T08:33:38;52.53;;;49.28;;
45714;SDS011;31430;61.646;24.704;2023-04-01T08:36:13;48.70;;;45.67;;
45714;SDS011;31430;61.646;24.704;2023-04-01T08:39:02;49.95;;;46.85;;
45714;SDS011;31430;61.646;24.704;2023-04-01T08:55:02;51.72;;;48.50;;
45714;SDS011;31430;61.646;24.704;2023-04-01T09:11:02;49.03;;;45.97;;
45714;SDS011;31430;61.646;24.704;2023-04-01T09:16:28;47.75;;;44.78;;
45714;SDS011;31430;61.646;24.704;2023-04-01T09:43:26;47.60;;;44.63;;
45714;SDS011;31430;61.646;24.704;2023-04-01T09:49:00;46.17;;;43.30;;
45714;SDS011;31430;61.646;24.704;2023-04-01T10:11:01;48.78;;;45.75;;
45714;SDS011;31430;61.646;24.704;2023-04-01T10:16:54;46.90;;;44.00;;
45714;SDS011;31430;61.646;24.704;2023-04-01T10:27:55;47.78;;;44.80;;
45714;SDS011;31430;61.646;24.704;2023-04-01T10:42:23;46.17;;;43.30;;
45714;SDS011;31430;61.646;24.704;2023-04-01T11:16:17;45.78;;;42.92;;
45714;SDS011;31430;61.646;24.704;2023-04-01T11:27:19;43.78;;;41.08;;
45714;SDS011;31430;61.646;24.704;2023-04-01T11:38:26;43.45;;;40.75;;
45714;SDS011;31430;61.646;24.704;2023-04-01T11:49:21;42.33;;;39.70;;
45714;SDS011;31430;61.646;24.704;2023-04-01T11:55:32;41.40;;;38.80;;
45714;SDS011;31430;61.646;24.704;2023-04-01T12:08:46;42.10;;;39.50;;
45714;SDS011;31430;61.646;24.704;2023-04-01T12:14:30;41.28;;;38.70;;
45714;SDS011;31430;61.646;24.704;2023-04-01T12:23:04;42.80;;;40.13;;
45714;SDS011;31430;61.646;24.704;2023-04-01T12:39:15;41.00;;;38.45;;
45714;SDS011;31430;61.646;24.704;2023-04-01T12:42:24;42.80;;;40.13;;
45714;SDS011;31430;61.646;24.704;2023-04-01T13:00:58;43.55;;;40.85;;
45714;SDS011;31430;61.646;24.704;2023-04-01T13:11:28;43.97;;;41.25;;
45714;SDS011;31430;61.646;24.704;2023-04-01T13:17:30;43.47;;;40.78;;
45714;SDS011;31430;61.646;24.704;2023-04-01T13:20:03;42.88;;;40.20;;
45714;SDS011;31430;61.646;24.704;2023-04-01T13:22:58;41.85;;;39.25;;
45714;SDS011;31430;61.646;24.704;2023-04-01T13:31:44;42.15;;;39.55;;
45714;SDS011;31430;61.646;24.704;2023-04-01T14:02:53;43.10;;;40.40;;
45714;SDS011;31430;61.646;24.704;2023-04-01T14:36:10;42.00;;;39.40;;
45714;SDS011;31430;61.646;24.704;2023-04-01T14:41:53;42.85;;;40.17;;
45714;SDS011;31430;61.646;24.704;2023-04-01T14:50:21;42.67;;;40.03;;
45714;SDS011;31430;61.646;24.704;2023-04-01T14:58:10;45.00;;;42.20;;
45714;SDS011;31430;61.646;24.704;2023-04-01T15:18:32;42.72;;;40.08;;
45714;SDS011;31430;61.646;24.704;2023-04-01T15:24:06;42.75;;;40.10;;
45714;SDS011;31430;61.646;24.704;2023-04-01T15:29:36;44.22;;;41.47;;
45714;SDS011;31430;61.646;24.704;2023-04-01T15:37:56;43.80;;;41.10;;
45714;SDS011;31430;61.646;24.704;2023-04-01T15:43:27;43.42;;;40.72;;
45714;SDS011;31430;61.646;24.704;2023-04-01T15:49:19;44.75;;;41.95;;
45714;SDS011;31430;61.646;24.704;2023-04-01T16:00:13;44.42;;;41.65;;
45714;SDS011;31430;61.646;24.704;2023-04-01T16:08:28;43.80;;;41.08;;
45714;SDS011;31430;61.646;24.704;2023-04-01T16:11:23;46.42;;;43.53;;
45714;SDS011;31430;61.646;24.704;2023-04-01T16:22:13;45.28;;;42.47;;
45714;SDS011;31430;61.646;24.704;2023-04-01T16:25:14;44.45;;;41.67;;
45714;SDS011;31430;61.646;24.704;2023-04-01T16:31:06;46.40;;;43.50;;
45714;SDS011;31430;61.646;24.704;2023-04-01T16:33:52;45.72;;;42.88;;
45714;SDS011;31430;61.646;24.704;2023-04-01T16:42:24;47.13;;;44.20;;
45714;SDS011;31430;61.646;24.704;2023-04-01T16:47:35;45.05;;;42.25;;
45714;SDS011;31430;61.646;24.704;2023-04-01T16:50:24;47.10;;;44.17;;
45714;SDS011;31430;61.646;24.704;2023-04-01T16:55:42;45.30;;;42.50;;
45714;SDS011;31430;61.646;24.704;2023-04-01T17:01:02;45.53;;;42.70;;
45714;SDS011;31430;61.646;24.704;2023-04-01T17:03:37;47.50;;;44.55;;
45714;SDS011;31430;61.646;24.704;2023-04-01T17:14:33;47.78;;;44.80;;
45714;SDS011;31430;61.646;24.704;2023-04-01T17:27:51;46.40;;;43.50;;
45714;SDS011;31430;61.646;24.704;2023-04-01T17:30:55;46.83;;;43.92;;
45714;SDS011;31430;61.646;24.704;2023-04-01T17:42:09;48.33;;;45.33;;
45714;SDS011;31430;61.646;24.704;2023-04-01T17:44:59;49.80;;;46.70;;
45714;SDS011;31430;61.646;24.704;2023-04-01T17:59:05;50.67;;;47.53;;
45714;SDS011;31430;61.646;24.704;2023-04-01T18:22:34;49.88;;;46.78;;
45714;SDS011;31430;61.646;24.704;2023-04-01T18:27:42;49.63;;;46.53;;
45714;SDS011;31430;61.646;24.704;2023-04-01T18:38:05;48.63;;;45.60;;
45714;SDS011;31430;61.646;24.704;2023-04-01T18:40:41;52.42;;;49.15;;
45714;SDS011;31430;61.646;24.704;2023-04-01T18:46:00;50.75;;;47.60;;
45714;SDS011;31430;61.646;24.704;2023-04-01T18:51:16;50.60;;;47.45;;
45714;SDS011;31430;61.646;24.704;2023-04-01T18:53:53;50.92;;;47.75;;
45714;SDS011;31430;61.646;24.704;2023-04-01T18:56:29;51.60;;;48.40;;
45714;SDS011;31430;61.646;24.704;2023-04-01T18:59:04;51.50;;;48.30;;
45714;SDS011;31430;61.646;24.704;2023-04-01T19:01:47;49.08;;;46.03;;
45714;SDS011;31430;61.646;24.704;2023-04-01T19:07:28;51.20;;;48.00;;
45714;SDS011;31430;61.646;24.704;2023-04-01T19:20:41;49.42;;;46.35;;
45714;SDS011;31430;61.646;24.704;2023-04-01T19:25:57;50.72;;;47.58;;
45714;SDS011;31430;61.646;24.704;2023-04-01T19:36:56;51.47;;;48.28;;
45714;SDS011;31430;61.646;24.704;2023-04-01T19:48:09;51.67;;;48.47;;
45714;SDS011;31430;61.646;24.704;2023-04-01T19:51:02;51.85;;;48.63;;
45714;SDS011;31430;61.646;24.704;2023-04-01T19:59:55;52.33;;;49.08;;
45714;SDS011;31430;61.646;24.704;2023-04-01T20:07:52;51.67;;;48.47;;
45714;SDS011;31430;61.646;24.704;2023-04-01T20:10:22;52.15;;;48.90;;
45714;SDS011;31430;61.646;24.704;2023-04-01T20:13:01;51.45;;;48.25;;
45714;SDS011;31430;61.646;24.704;2023-04-01T20:15:45;52.88;;;49.58;;
45714;SDS011;31430;61.646;24.704;2023-04-01T20:18:22;53.95;;;50.60;;
45714;SDS011;31430;61.646;24.704;2023-04-01T20:26:11;51.97;;;48.75;;
45714;SDS011;31430;61.646;24.704;2023-04-01T20:28:48;51.33;;;48.13;;
45714;SDS011;31430;61.646;24.704;2023-04-01T20:31:25;52.10;;;48.88;;
45714;SDS011;31430;61.646;24.704;2023-04-01T20:34:39;52.65;;;49.35;;
45714;SDS011;31430;61.646;24.704;2023-04-01T20:50:41;55.10;;;51.67;;
45714;SDS011;31430;61.646;24.704;2023-04-01T20:53:20;53.58;;;50.25;;
45714;SDS011;31430;61.646;24.704;2023-04-01T21:23:30;54.97;;;51.58;;
45714;SDS011;31430;61.646;24.704;2023-04-01T21:34:48;55.70;;;52.22;;
45714;SDS011;31430;61.646;24.704;2023-04-01T21:37:36;54.08;;;50.70;;
45714;SDS011;31430;61.646;24.704;2023-04-01T22:05:32;55.08;;;51.67;;
45714;SDS011;31430;61.646;24.704;2023-04-01T22:11:04;55.03;;;51.63;;
45714;SDS011;31430;61.646;24.704;2023-04-01T22:16:44;56.55;;;53.05;;
45714;SDS011;31430;61.646;24.704;2023-04-01T22:25:38;56.22;;;52.72;;
45714;SDS011;31430;61.646;24.704;2023-04-01T22:30:32;53.53;;;50.20;;
45714;SDS011;31430;61.646;24.704;2023-04-01T22:36:12;54.40;;;51.00;;
45714;SDS011;31430;61.646;24.704;2023-04-01T22:44:12;57.20;;;53.65;;
45714;SDS011;31430;61.646;24.704;2023-04-01T22:50:31;57.90;;;54.30;;
45714;SDS011;31430;61.646;24.704;2023-04-01T22:53:06;57.70;;;54.10;;
45714;SDS011;31430;61.646;24.704;2023-04-01T22:55:51;57.28;;;53.72;;
45714;SDS011;31430;61.646;24.704;2023-04-01T22:58:22;54.10;;;50.72;;
45714;SDS011;31430;61.646;24.704;2023-04-01T23:00:56;54.67;;;51.28;;
45714;SDS011;31430;61.646;24.704;2023-04-01T23:03:36;56.80;;;53.28;;
45714;SDS011;31430;61.646;24.704;2023-04-01T23:25:43;78.55;;;73.72;;
45714;SDS011;31430;61.646;24.704;2023-04-01T23:33:55;64.38;;;60.38;;
45714;SDS011;31430;61.646;24.704;2023-04-01T23:36:23;61.92;;;58.08;;
45714;SDS011;31430;61.646;24.704;2023-04-01T23:38:49;61.28;;;57.47;;
45714;SDS011;31430;61.646;24.704;2023-04-01T23:41:26;58.50;;;54.88;;
45714;SDS011;31430;61.646;24.704;2023-04-01T23:44:02;59.25;;;55.55;;
45714;SDS011;31430;61.646;24.704;2023-04-01T23:46:33;58.00;;;54.40;;
45714;SDS011;31430;61.646;24.704;2023-04-01T23:49:00;57.75;;;54.15;;
45714;SDS011;31430;61.646;24.704;2023-04-01T23:51:29;57.80;;;54.20;;
45714;SDS011;31430;61.646;24.704;2023-04-01T23:54:29;55.45;;;52.00;;
45714;SDS011;31430;61.646;24.704;2023-04-01T23:57:09;56.63;;;53.10;;
45714;SDS011;31430;61.646;24.704;2023-04-01T23:59:38;56.13;;;52.63;;
